CTF5 weather

Pierceland (Turchyn Field)
Pierceland, Saskatchewan, Canada

Public forecast

Using degrees Celsius for public forecast. Weather courtesy of forecast.io.

METAR (pilot weather report)

Closest report is CFB Cold Lake, 13.8 nm (25.6 km) WNW. Retrieved 2019/04/21 07:00 UTC (44 minutes ago):

CYOD 210700Z 26006KT 15SM SCT075 02/M01 A3001 RMK AC3 SLP184

TAF (pilot weather forecast)

Closest forecast is CFB Cold Lake, 13.8 nm (25.6 km) WNW. Retrieved 2019/04/21 06:35 UTC (1 hour ago):

TAF CYOD 210530Z 2106/2206 30005KT P6SM SCT080 TEMPO 2106/2108 BKN080 FM210800 28005KT P6SM SCT080 FM220200 14005KT P6SM SCT140 RMK NXT FCST BY 211200Z